Skip Navigation LinksHome page > Weather > Current weather Skip Navigation Links

Current Weather

Southend-on-Sea, United Kingdom

For information only: do not use for flight planning or navigation.
Latest weather
Observation time Tuesday, October 19, 2021 9:50 PM BST
Local time Tuesday, October 19, 2021 10:03 PM BST
Flight conditions Marginal Visual Meteorological Conditions
Winds
Wind direction South-Southwest (210°)
Wind speed 15 mph
Visibility 6.2 mi.
Sky condition
Ceiling 2,200 ft. broken clouds
Cloud layer broken clouds 2,200 ft.
Temperature 64°F
Dewpoint 57°F
Altimeter 29.80 in.Hg
Derived measurements
Relative humidity 77%
Density altitude 718 ft.
METAR EGMC 192050Z 21013KT 9999 BKN022 18/14 Q1009

Settings

Location code

InnerDrive.Weather 4.0.6770.0 Release CLR 4.0.30319.42000
Copyright ©2018 Inner Drive Technology. All rights reserved. Portions Copyright ©1986-2018 David Braverman.

Find weather

Site navigation


Skip Navigation Links

Place info

Page info

PayPal - The safer, easier way to pay online!

Return home.

Copyright ©2021 Inner Drive Technology. Purveyors of fine, hand-crafted computer software. Page printed 2021-10-19T21:03:56 UTC.